Puntzi Mountain, Canada
Current Conditions -  °F | °C
As of 7:00 PM on Wednesday 22 Oct 2014 (Local Time) from CYWL Reporting Station
Broken Clouds Broken Clouds  
Wind Chill: 10°   Ceiling: 21000
Heat Index: 10°   Visibility: 15mi
Dew Point:   Wind: 15mph
Humidity: 58%   Direction: 120°ESE
Pressure: 29.49"   Gusts: 26mph
Location:  52.12°N, 124.13°W
Report Text: CYWL 230200Z 12013G23KT 15SM FEW050 SCT100 BKN210 10/02 A2949 RMK SC1AC3CI1 SLP996 DENSITY ALT 3600FT
Loading
Personal Weather Stations






























Interactive Weather Map
Tropical Storm Tracking
New forecast layout! Learn more

10-Day Weather Forecast

Advertisements
Track Severe Weather on mobile